Airfield :
LOGIN :

Register | Disclaimer

   EN    FR    IT 

 










Legend :    VFR   Marginal VFR   IFR   Intensive IFR   Very Intensive IFR
Visi :
Ceiling :
>= 8 km
>= 3000ft
5 to 8 km
1000 to 3000 ft
1500m to 5 km
500 to 1000 ft
800 to 1500m
200 to 500 ft
< 800m
< 200 ft
Symbols :   Thunderstorms  Fog  Heavy snow  Heavy precipitations  Wind > 20 kt
SIGMETs :     Misc.  Thunderstorms  Icing  Turbulence  Mountain Waves  Volcanic Ashes






- Airport Elevation : 56 ft
- IATA code : ILY


EGPI - Islay

CURRENT METAR :
  • 260250Z AUTO 26008KT 9000 OVC004/// 09/09 Q1033

EXPIRED METARs :
  • 260220Z AUTO 27009KT 240V300 7000 OVC002/// 09/09 Q1033
  • 260150Z AUTO 28007KT 250V310 2500 OVC002/// 10/10 Q1032
  • 260120Z AUTO 28007KT 0600 FG OVC002/// 10/10 Q1032
  • 260050Z AUTO 29004KT 230V340 4300 BR OVC002/// 10/10 Q1032

TAF TAF EGPI
Valid from the 26 at 03:00 until the 26 at 12:00 UTC


260157Z 2603/2612 27009KT 2000 BR BKN002
BECMG 2603/2606 9999 NSW SCT025
TEMPO 2603/2606 0300 FG VV///



MET'MAP, your aeronautical weather chart ! - Copyright ORBIFLY December 2007 - Disclaimer

ORBIFLY MET'MAP TEAM :

Programming & Development : Alexandra Zaïnal
Concept & original design : Baudouin d'Aumeries
Assistance for programming : Marc-Olivier Méhu
Technical & hardware support : Manuel Goepfert

Contact : metmap@orbifly.com




SOURCES & CREDITS :

   NOAA